createdAt,value
2023-03-12T00:01:57.084Z,17.30
2023-03-12T00:04:23.582Z,13.80
2023-03-12T00:06:49.999Z,12.77
2023-03-12T00:09:16.638Z,14.90
2023-03-12T00:11:43.461Z,14.57
2023-03-12T00:14:09.914Z,18.77
2023-03-12T00:16:36.351Z,13.77
2023-03-12T00:19:03.067Z,16.60
2023-03-12T00:21:29.446Z,15.98
2023-03-12T00:23:56.270Z,14.77
2023-03-12T00:26:22.728Z,15.27
2023-03-12T00:28:50.447Z,18.50
2023-03-12T00:31:20.328Z,13.20
2023-03-12T00:33:49.882Z,15.75
2023-03-12T00:36:17.964Z,15.05
2023-03-12T00:38:44.469Z,15.65
2023-03-12T00:41:10.973Z,13.05
2023-03-12T00:43:37.496Z,14.73
2023-03-12T00:46:04.304Z,16.42
2023-03-12T00:48:31.055Z,17.75
2023-03-12T00:50:57.542Z,14.00
2023-03-12T00:53:24.055Z,19.58
2023-03-12T00:55:50.507Z,17.67
2023-03-12T00:58:17.134Z,15.38
2023-03-12T01:00:43.566Z,14.73
2023-03-12T01:03:09.962Z,12.90
2023-03-12T01:05:37.816Z,13.82
2023-03-12T01:08:08.004Z,17.23
2023-03-12T01:10:35.113Z,14.27
2023-03-12T01:13:01.681Z,15.13
2023-03-12T01:15:29.255Z,16.25
2023-03-12T01:17:55.626Z,15.20
2023-03-12T01:20:23.022Z,14.60
2023-03-12T01:22:49.530Z,12.07
2023-03-12T01:25:16.094Z,19.83
2023-03-12T01:27:42.480Z,16.77
2023-03-12T01:30:10.050Z,15.82
2023-03-12T01:32:36.607Z,17.80
2023-03-12T01:35:03.240Z,19.17
2023-03-12T01:37:29.615Z,19.35
2023-03-12T01:39:56.231Z,15.23
2023-03-12T01:42:22.646Z,16.33
2023-03-12T01:44:56.327Z,16.13
2023-03-12T01:47:24.402Z,17.55
2023-03-12T01:49:54.412Z,16.27
2023-03-12T01:52:33.052Z,16.08
2023-03-12T01:55:09.530Z,20.38
2023-03-12T01:57:59.157Z,17.85
2023-03-12T02:00:27.339Z,13.63
2023-03-12T02:03:00.421Z,14.43
2023-03-12T02:05:43.315Z,15.77
2023-03-12T02:08:14.462Z,17.27
2023-03-12T02:10:40.962Z,14.70
2023-03-12T02:13:07.783Z,12.70
2023-03-12T02:15:36.163Z,11.57
2023-03-12T02:18:13.645Z,14.15
2023-03-12T02:20:49.490Z,10.85
2023-03-12T02:23:30.165Z,10.57
2023-03-12T02:25:58.495Z,9.48
2023-03-12T02:28:27.992Z,10.85
2023-03-12T02:30:59.857Z,7.65
2023-03-12T02:33:26.483Z,11.65
2023-03-12T02:35:54.161Z,7.18
2023-03-12T02:38:34.065Z,10.10
2023-03-12T02:41:05.453Z,8.48
2023-03-12T02:43:32.352Z,7.93
2023-03-12T02:45:58.834Z,8.55
2023-03-12T02:48:25.290Z,7.65
2023-03-12T02:50:52.389Z,7.45
2023-03-12T02:53:18.783Z,9.43
2023-03-12T02:55:45.286Z,9.13
2023-03-12T02:58:11.708Z,6.97
2023-03-12T03:00:38.134Z,7.28
2023-03-12T03:03:04.666Z,6.50
2023-03-12T03:05:31.558Z,8.00
2023-03-12T03:07:57.951Z,7.18
2023-03-12T03:10:24.552Z,8.02
2023-03-12T03:12:51.426Z,9.45
2023-03-12T03:15:17.957Z,9.75
2023-03-12T03:17:44.507Z,9.05
2023-03-12T03:20:11.932Z,8.00
2023-03-12T03:22:39.327Z,7.47
2023-03-12T03:25:07.432Z,9.88
2023-03-12T03:27:34.169Z,9.40
2023-03-12T03:30:00.805Z,7.90
2023-03-12T03:32:27.769Z,9.50
2023-03-12T03:34:54.277Z,13.23
2023-03-12T03:37:20.680Z,11.70
2023-03-12T03:39:47.203Z,10.02
2023-03-12T03:42:13.740Z,11.38
2023-03-12T03:44:40.993Z,12.18
2023-03-12T03:47:07.494Z,10.55
2023-03-12T03:49:33.969Z,12.52
2023-03-12T03:52:00.577Z,9.57
2023-03-12T03:54:33.985Z,9.45
2023-03-12T03:57:01.037Z,7.20
2023-03-12T03:59:28.345Z,8.77
2023-03-12T04:01:55.798Z,7.65
2023-03-12T04:04:22.483Z,7.78
2023-03-12T04:06:49.419Z,7.55
2023-03-12T04:09:16.202Z,6.10
2023-03-12T04:11:42.715Z,7.78
2023-03-12T04:14:11.961Z,6.82
2023-03-12T04:16:45.881Z,7.35
2023-03-12T04:19:12.343Z,5.50
2023-03-12T04:21:39.635Z,10.75
2023-03-12T04:24:08.195Z,5.22
2023-03-12T04:26:35.150Z,5.50
2023-03-12T04:29:03.073Z,7.40
2023-03-12T04:31:29.824Z,6.88
2023-03-12T04:33:56.282Z,10.02
2023-03-12T04:36:24.658Z,8.15
2023-03-12T04:38:52.533Z,8.52
2023-03-12T04:41:23.569Z,5.57
2023-03-12T04:43:55.110Z,5.20
2023-03-12T04:46:22.019Z,8.35
2023-03-12T04:48:48.610Z,7.13
2023-03-12T04:51:15.619Z,7.55
2023-03-12T04:53:42.394Z,10.77
2023-03-12T04:56:11.029Z,10.25
2023-03-12T04:58:38.687Z,7.95
2023-03-12T05:01:05.810Z,7.47
2023-03-12T05:03:32.662Z,10.73
2023-03-12T05:05:59.487Z,11.10
2023-03-12T05:08:26.139Z,10.15
2023-03-12T05:10:52.603Z,10.15
2023-03-12T05:13:21.655Z,8.73
2023-03-12T05:15:51.552Z,7.55
2023-03-12T05:18:21.236Z,5.25
2023-03-12T05:20:47.861Z,7.70
2023-03-12T05:23:14.422Z,11.30
2023-03-12T05:25:41.385Z,8.18
2023-03-12T05:28:08.319Z,6.97
2023-03-12T05:30:36.337Z,8.93
2023-03-12T05:33:02.864Z,7.88
2023-03-12T05:35:30.285Z,9.43
2023-03-12T05:37:56.928Z,6.65
2023-03-12T05:40:23.281Z,10.13
2023-03-12T05:42:49.843Z,11.20
2023-03-12T05:45:19.544Z,5.50
2023-03-12T05:47:50.229Z,5.90
2023-03-12T05:50:17.512Z,7.75
2023-03-12T05:52:44.060Z,9.05
2023-03-12T05:55:11.376Z,6.88
2023-03-12T05:57:37.867Z,6.88
2023-03-12T06:00:06.098Z,8.45
2023-03-12T06:02:39.999Z,7.82
2023-03-12T06:05:07.390Z,5.00
2023-03-12T06:07:34.178Z,11.75
2023-03-12T06:10:00.769Z,11.77
2023-03-12T06:12:27.430Z,11.70
2023-03-12T06:14:53.906Z,6.55
2023-03-12T06:17:21.419Z,9.13
2023-03-12T06:19:51.739Z,8.45
2023-03-12T06:22:19.539Z,11.95
2023-03-12T06:24:47.270Z,10.23
2023-03-12T06:27:15.746Z,9.18
2023-03-12T06:29:43.027Z,6.38
2023-03-12T06:32:09.466Z,10.15
2023-03-12T06:34:35.854Z,6.53
2023-03-12T06:37:02.410Z,9.45
2023-03-12T06:39:29.851Z,6.50
2023-03-12T06:41:56.498Z,7.45
2023-03-12T06:44:22.985Z,7.97
2023-03-12T06:46:49.405Z,6.45
2023-03-12T06:49:15.839Z,9.88
2023-03-12T06:51:42.280Z,10.52
2023-03-12T06:54:08.889Z,7.25
2023-03-12T06:56:35.342Z,6.85
2023-03-12T06:59:01.742Z,8.27
2023-03-12T07:01:28.211Z,8.80
2023-03-12T07:03:54.666Z,8.30
2023-03-12T07:06:22.439Z,9.85
2023-03-12T07:08:48.882Z,13.32
2023-03-12T07:11:15.878Z,8.00
2023-03-12T07:13:42.328Z,11.30
2023-03-12T07:16:09.179Z,9.50
2023-03-12T07:18:35.591Z,10.00
2023-03-12T07:21:02.107Z,6.72
2023-03-12T07:23:28.500Z,8.60
2023-03-12T07:25:55.073Z,11.93
2023-03-12T07:28:22.274Z,9.57
2023-03-12T07:30:50.569Z,7.85
2023-03-12T07:33:20.163Z,8.50
2023-03-12T07:35:50.982Z,9.50
2023-03-12T07:38:18.247Z,8.38
2023-03-12T07:40:44.916Z,7.65
2023-03-12T07:43:12.684Z,7.82
2023-03-12T07:45:40.720Z,7.20
2023-03-12T07:48:07.631Z,7.72
2023-03-12T07:50:35.043Z,7.78
2023-03-12T07:53:01.798Z,8.90
2023-03-12T07:55:28.636Z,8.82
2023-03-12T07:57:58.284Z,14.57
2023-03-12T08:00:25.789Z,6.78
2023-03-12T08:02:52.781Z,10.48
2023-03-12T08:05:19.833Z,9.90
2023-03-12T08:07:46.644Z,9.70
2023-03-12T08:10:13.276Z,9.38
2023-03-12T08:12:39.863Z,9.32
2023-03-12T08:15:08.787Z,10.10
2023-03-12T08:17:35.286Z,11.13
2023-03-12T08:20:01.764Z,9.05
2023-03-12T08:22:28.131Z,10.52
2023-03-12T08:24:54.487Z,8.77
2023-03-12T08:27:21.105Z,9.82
2023-03-12T08:29:47.529Z,12.80
2023-03-12T08:32:14.164Z,9.40
2023-03-12T08:34:40.801Z,11.45
2023-03-12T08:37:07.508Z,10.07
2023-03-12T08:39:34.144Z,11.40
2023-03-12T08:42:00.922Z,12.35
2023-03-12T08:44:27.486Z,9.98
2023-03-12T08:46:54.442Z,12.60
2023-03-12T08:49:21.475Z,14.10
2023-03-12T08:51:48.427Z,11.52
2023-03-12T08:54:15.136Z,12.27
2023-03-12T08:56:44.444Z,11.65
2023-03-12T08:59:12.406Z,11.00
2023-03-12T09:01:43.004Z,13.30
2023-03-12T09:04:10.532Z,11.63
2023-03-12T09:06:38.309Z,12.80
2023-03-12T09:09:05.557Z,11.70
2023-03-12T09:11:33.251Z,13.02
2023-03-12T09:16:47.509Z,16.48
2023-03-12T09:19:14.492Z,16.63
2023-03-12T09:21:41.100Z,16.90
2023-03-12T09:24:08.167Z,11.82
2023-03-12T09:26:34.606Z,16.65
2023-03-12T09:29:00.964Z,16.67
2023-03-12T09:31:27.824Z,16.38
2023-03-12T09:33:54.286Z,19.00
2023-03-12T09:36:20.698Z,17.48
2023-03-12T09:38:47.102Z,13.93
2023-03-12T09:41:28.851Z,15.68
2023-03-12T09:44:10.823Z,13.98
2023-03-12T09:46:43.161Z,14.55
2023-03-12T09:49:32.276Z,15.60
2023-03-12T09:52:01.985Z,14.35
2023-03-12T09:54:38.095Z,17.40
2023-03-12T09:57:13.362Z,17.35
2023-03-12T09:59:39.817Z,16.58
2023-03-12T10:02:27.529Z,18.38
2023-03-12T10:05:00.939Z,19.17
2023-03-12T10:10:36.222Z,12.93
2023-03-12T10:13:10.107Z,14.45
2023-03-12T10:15:57.369Z,13.52
2023-03-12T10:18:43.004Z,17.00
2023-03-12T10:21:35.342Z,14.90
2023-03-12T10:24:16.516Z,16.00
2023-03-12T10:26:49.039Z,11.65
2023-03-12T10:29:24.537Z,12.55
2023-03-12T10:31:56.979Z,12.80
2023-03-12T10:34:40.191Z,13.83
2023-03-12T10:37:14.300Z,12.85
2023-03-12T10:39:40.893Z,15.18
2023-03-12T10:42:28.927Z,14.23
2023-03-12T10:45:19.356Z,15.98
2023-03-12T10:47:52.009Z,15.48
2023-03-12T10:50:30.860Z,18.48
2023-03-12T10:53:34.550Z,16.35
2023-03-12T10:56:05.436Z,16.48
2023-03-12T10:58:35.084Z,14.35
2023-03-12T11:01:03.914Z,15.88
2023-03-12T11:03:30.358Z,16.73
2023-03-12T11:06:00.895Z,13.52
2023-03-12T11:08:29.439Z,16.38
2023-03-12T11:10:58.178Z,16.70
2023-03-12T11:13:26.800Z,18.23
2023-03-12T11:15:54.875Z,16.58
2023-03-12T11:18:25.877Z,18.05
2023-03-12T11:21:11.376Z,18.85
2023-03-12T11:23:43.050Z,18.77
2023-03-12T11:26:22.076Z,17.45
2023-03-12T11:28:56.159Z,20.50
2023-03-12T11:31:30.995Z,20.08
2023-03-12T11:34:03.532Z,19.92
2023-03-12T11:36:56.351Z,19.60
2023-03-12T11:39:49.043Z,21.05
2023-03-12T11:45:03.800Z,21.67
2023-03-12T11:47:48.251Z,21.55
2023-03-12T11:50:39.912Z,25.20
2023-03-12T11:53:21.437Z,22.70
2023-03-12T11:56:25.455Z,22.80
2023-03-12T11:59:05.372Z,22.98
2023-03-12T12:02:04.482Z,26.55
2023-03-12T12:04:45.954Z,24.27
2023-03-12T12:07:33.611Z,25.73
2023-03-12T12:10:23.326Z,24.63
2023-03-12T12:13:04.413Z,27.85
2023-03-12T12:15:45.841Z,28.83
2023-03-12T12:18:36.021Z,26.67
2023-03-12T12:21:24.487Z,30.15
2023-03-12T12:23:59.031Z,40.42
2023-03-12T12:26:42.455Z,32.22
2023-03-12T12:29:27.689Z,35.40
2023-03-12T12:31:59.021Z,36.88
2023-03-12T12:34:58.433Z,42.25
2023-03-12T12:37:38.900Z,41.65
2023-03-12T12:40:21.732Z,41.20
2023-03-12T12:42:55.462Z,45.50
2023-03-12T12:45:24.957Z,45.70
2023-03-12T12:48:03.991Z,42.42
2023-03-12T12:50:37.086Z,45.38
2023-03-12T12:53:22.973Z,45.17
2023-03-12T12:56:19.749Z,49.97
2023-03-12T12:59:24.994Z,52.95
2023-03-12T13:01:54.839Z,53.33
2023-03-12T13:04:48.097Z,49.53
2023-03-12T13:07:20.789Z,48.53
2023-03-12T13:09:58.589Z,49.47
2023-03-12T13:12:24.903Z,47.40
2023-03-12T13:14:54.641Z,44.38
2023-03-12T13:17:33.741Z,39.85
2023-03-12T13:20:11.934Z,52.40
2023-03-12T13:23:17.352Z,37.30
2023-03-12T13:26:06.284Z,35.20
2023-03-12T13:28:36.883Z,36.80
2023-03-12T13:31:28.178Z,30.77
2023-03-12T13:33:59.475Z,32.85
2023-03-12T13:36:29.056Z,31.23
2023-03-12T13:38:57.793Z,31.35
2023-03-12T13:41:54.820Z,32.28
2023-03-12T13:44:27.321Z,33.55
2023-03-12T13:47:03.049Z,29.13
2023-03-12T13:49:45.197Z,35.95
2023-03-12T13:52:26.188Z,29.48
2023-03-12T13:55:13.659Z,24.92
2023-03-12T13:57:49.772Z,31.65
2023-03-12T14:00:18.367Z,32.60
2023-03-12T14:03:00.866Z,28.63
2023-03-12T14:05:28.938Z,28.17
2023-03-12T14:08:15.110Z,31.50
2023-03-12T14:11:11.407Z,25.15
2023-03-12T14:13:43.582Z,25.50
2023-03-12T14:16:17.184Z,27.73
2023-03-12T14:18:44.986Z,28.67
2023-03-12T14:21:16.374Z,31.63
2023-03-12T14:23:58.015Z,28.45
2023-03-12T14:26:29.278Z,27.98
2023-03-12T14:29:02.503Z,35.22
2023-03-12T14:31:31.394Z,22.55
2023-03-12T14:34:08.755Z,28.25
2023-03-12T14:36:45.312Z,28.80
2023-03-12T14:39:39.270Z,34.83
2023-03-12T14:44:36.968Z,30.63
2023-03-12T14:47:11.086Z,27.70
2023-03-12T14:49:43.565Z,25.20
2023-03-12T14:52:20.279Z,22.38
2023-03-12T14:55:07.530Z,26.65
2023-03-12T14:57:35.003Z,31.65
2023-03-12T15:00:01.918Z,30.23
2023-03-12T15:02:31.073Z,19.60
2023-03-12T15:05:00.001Z,26.85
2023-03-12T15:07:34.398Z,25.63
2023-03-12T15:10:06.112Z,26.95
2023-03-12T15:12:38.024Z,24.35
2023-03-12T15:15:10.912Z,22.73
2023-03-12T15:17:37.601Z,25.60
2023-03-12T15:20:09.816Z,19.35
2023-03-12T15:22:37.167Z,31.27
2023-03-12T15:25:25.829Z,26.80
2023-03-12T15:28:25.141Z,24.90
2023-03-12T15:31:16.533Z,22.77
2023-03-12T15:33:44.438Z,25.90
2023-03-12T15:36:14.302Z,22.67
2023-03-12T15:39:05.939Z,27.67
2023-03-12T15:41:32.306Z,27.10
2023-03-12T15:43:59.583Z,23.40
2023-03-12T15:46:27.250Z,22.98
2023-03-12T15:48:59.331Z,29.17
2023-03-12T15:51:35.081Z,25.90
2023-03-12T15:54:24.196Z,30.10
2023-03-12T15:56:50.658Z,27.08
2023-03-12T15:59:16.988Z,22.73
2023-03-12T16:01:47.509Z,25.10
2023-03-12T16:04:13.948Z,23.20
2023-03-12T16:06:43.833Z,26.30
2023-03-12T16:09:16.876Z,27.10
2023-03-12T16:11:43.795Z,29.17
2023-03-12T16:14:24.539Z,30.67
2023-03-12T16:16:51.477Z,24.40
2023-03-12T16:19:20.771Z,22.25
2023-03-12T16:21:48.385Z,27.73
2023-03-12T16:24:16.442Z,27.48
2023-03-12T16:26:50.579Z,27.30
2023-03-12T16:29:19.180Z,21.58
2023-03-12T16:31:51.520Z,29.40
2023-03-12T16:34:17.954Z,25.55
2023-03-12T16:36:44.360Z,24.58
2023-03-12T16:39:10.726Z,23.08
2023-03-12T16:41:37.665Z,29.42
2023-03-12T16:44:06.860Z,23.60
2023-03-12T16:46:34.957Z,20.48
2023-03-12T16:49:01.785Z,25.20
2023-03-12T16:51:30.832Z,23.98
2023-03-12T16:54:09.708Z,20.75
2023-03-12T16:56:38.559Z,24.30
2023-03-12T16:59:10.958Z,23.83
2023-03-12T17:01:37.670Z,24.83
2023-03-12T17:04:04.890Z,22.45
2023-03-12T17:06:32.694Z,21.88
2023-03-12T17:08:59.697Z,22.98
2023-03-12T17:11:29.928Z,31.05
2023-03-12T17:14:00.100Z,24.23
2023-03-12T17:16:26.976Z,27.23
2023-03-12T17:18:54.094Z,22.73
2023-03-12T17:21:21.299Z,29.13
2023-03-12T17:23:50.250Z,20.67
2023-03-12T17:26:18.624Z,25.50
2023-03-12T17:28:45.362Z,26.20
2023-03-12T17:31:11.742Z,28.17
2023-03-12T17:33:38.444Z,26.83
2023-03-12T17:36:08.067Z,27.02
2023-03-12T17:38:35.077Z,22.73
2023-03-12T17:41:04.700Z,27.95
2023-03-12T17:43:32.339Z,25.45
2023-03-12T17:46:04.326Z,24.00
2023-03-12T17:48:30.725Z,30.20
2023-03-12T17:50:58.172Z,26.98
2023-03-12T17:53:24.909Z,27.92
2023-03-12T17:55:51.275Z,25.60
2023-03-12T17:58:17.646Z,28.65
2023-03-12T18:00:44.172Z,21.27
2023-03-12T18:03:10.629Z,21.75
2023-03-12T18:05:42.821Z,27.48
2023-03-12T18:08:09.865Z,21.20
2023-03-12T18:10:40.449Z,27.83
2023-03-12T18:13:06.877Z,28.50
2023-03-12T18:15:33.343Z,23.27
2023-03-12T18:18:00.919Z,23.58
2023-03-12T18:20:37.783Z,25.33
2023-03-12T18:23:04.867Z,22.65
2023-03-12T18:25:31.234Z,26.63
2023-03-12T18:27:58.130Z,29.00
2023-03-12T18:30:24.627Z,20.40
2023-03-12T18:32:51.067Z,22.35
2023-03-12T18:35:17.616Z,20.35
2023-03-12T18:37:44.818Z,17.92
2023-03-12T18:40:12.417Z,23.30
2023-03-12T18:42:44.027Z,26.88
2023-03-12T18:45:11.801Z,23.83
2023-03-12T18:47:41.955Z,21.10
2023-03-12T18:50:09.532Z,21.10
2023-03-12T18:52:36.396Z,25.92
2023-03-12T18:55:04.303Z,21.67
2023-03-12T18:57:31.303Z,23.85
2023-03-12T18:59:57.895Z,26.13
2023-03-12T19:02:24.304Z,22.35
2023-03-12T19:04:51.217Z,19.70
2023-03-12T19:07:19.541Z,21.35
2023-03-12T19:09:46.602Z,23.67
2023-03-12T19:12:13.040Z,20.25
2023-03-12T19:14:39.551Z,23.30
2023-03-12T19:17:05.953Z,21.02
2023-03-12T19:19:32.391Z,20.60
2023-03-12T19:21:59.068Z,21.25
2023-03-12T19:24:25.968Z,21.42
2023-03-12T19:26:52.442Z,26.27
2023-03-12T19:29:19.191Z,25.83
2023-03-12T19:31:45.703Z,20.63
2023-03-12T19:34:12.239Z,21.98
2023-03-12T19:36:39.023Z,24.77
2023-03-12T19:39:15.316Z,17.70
2023-03-12T19:41:46.739Z,25.33
2023-03-12T19:44:13.135Z,25.65
2023-03-12T19:46:41.686Z,21.63
2023-03-12T19:49:08.127Z,22.75
2023-03-12T19:51:35.342Z,25.10
2023-03-12T19:54:01.937Z,23.42
2023-03-12T19:56:28.973Z,26.05
2023-03-12T19:58:55.378Z,21.88
2023-03-12T20:01:21.746Z,23.27
2023-03-12T20:03:48.186Z,23.17
2023-03-12T20:06:14.837Z,18.05
2023-03-12T20:08:41.228Z,19.27
2023-03-12T20:11:10.071Z,23.20
2023-03-12T20:13:40.052Z,20.77
2023-03-12T20:16:07.609Z,23.23
2023-03-12T20:18:34.499Z,22.48
2023-03-12T20:21:00.917Z,22.15
2023-03-12T20:23:27.300Z,19.73
2023-03-12T20:25:53.706Z,18.90
2023-03-12T20:28:20.082Z,22.98
2023-03-12T20:30:46.969Z,25.63
2023-03-12T20:33:13.668Z,24.77
2023-03-12T20:35:40.085Z,19.65
2023-03-12T20:38:07.040Z,21.98
2023-03-12T20:40:33.753Z,25.88
2023-03-12T20:43:04.540Z,21.33
2023-03-12T20:45:32.598Z,21.80
2023-03-12T20:47:59.104Z,21.13
2023-03-12T20:50:26.983Z,26.80
2023-03-12T20:52:53.477Z,20.90
2023-03-12T20:55:19.942Z,18.92
2023-03-12T20:57:46.349Z,20.58
2023-03-12T21:00:12.950Z,26.95
2023-03-12T21:02:39.438Z,25.73
2023-03-12T21:05:06.000Z,19.10
2023-03-12T21:07:32.452Z,26.48
2023-03-12T21:09:58.830Z,19.08
2023-03-12T21:12:25.256Z,22.08
2023-03-12T21:14:51.679Z,26.35
2023-03-12T21:17:18.030Z,17.95
2023-03-12T21:19:44.625Z,20.13
2023-03-12T21:22:11.018Z,24.15
2023-03-12T21:24:37.494Z,21.60
2023-03-12T21:27:04.105Z,26.02
2023-03-12T21:29:30.478Z,21.88
2023-03-12T21:31:57.348Z,19.63
2023-03-12T21:34:23.935Z,18.13
2023-03-12T21:36:50.313Z,23.95
2023-03-12T21:39:17.496Z,20.58
2023-03-12T21:41:43.847Z,19.38
2023-03-12T21:44:10.245Z,22.10
2023-03-12T21:46:36.786Z,18.42
2023-03-12T21:49:04.062Z,21.75
2023-03-12T21:51:30.639Z,20.38
2023-03-12T21:53:58.352Z,20.10
2023-03-12T21:56:29.175Z,23.98
2023-03-12T21:58:57.138Z,22.90
2023-03-12T22:01:24.108Z,19.25
2023-03-12T22:03:50.978Z,18.85
2023-03-12T22:06:17.375Z,23.33
2023-03-12T22:08:44.075Z,22.70
2023-03-12T22:11:11.009Z,22.17
2023-03-12T22:13:37.801Z,16.77
2023-03-12T22:16:07.894Z,21.30
2023-03-12T22:18:41.284Z,21.67
2023-03-12T22:21:08.824Z,19.88
2023-03-12T22:23:36.298Z,18.80
2023-03-12T22:26:05.134Z,20.73
2023-03-12T22:28:32.306Z,24.23
2023-03-12T22:31:06.971Z,21.55
2023-03-12T22:33:37.815Z,19.80
2023-03-12T22:36:06.977Z,22.80
2023-03-12T22:38:33.443Z,23.27
2023-03-12T22:41:13.287Z,15.82
2023-03-12T22:43:39.718Z,21.80
2023-03-12T22:46:06.219Z,26.10
2023-03-12T22:48:32.811Z,29.38
2023-03-12T22:50:59.199Z,23.23
2023-03-12T22:53:25.601Z,16.73
2023-03-12T22:56:00.163Z,17.35
2023-03-12T22:58:27.090Z,21.25
2023-03-12T23:01:04.056Z,20.40
2023-03-12T23:03:32.043Z,14.38
2023-03-12T23:05:59.565Z,18.85
2023-03-12T23:08:26.843Z,13.95
2023-03-12T23:11:02.399Z,15.88
2023-03-12T23:13:30.805Z,16.23
2023-03-12T23:16:11.178Z,21.08
2023-03-12T23:18:38.222Z,16.42
2023-03-12T23:21:07.978Z,21.75
2023-03-12T23:23:35.704Z,24.17
2023-03-12T23:26:03.229Z,18.00
2023-03-12T23:28:32.406Z,14.82
2023-03-12T23:31:02.010Z,15.43
2023-03-12T23:33:29.957Z,12.60
2023-03-12T23:36:08.905Z,16.73
2023-03-12T23:38:37.610Z,16.08
2023-03-12T23:41:07.597Z,13.77
2023-03-12T23:43:34.487Z,19.77
2023-03-12T23:46:03.780Z,14.95
2023-03-12T23:48:31.932Z,15.55
2023-03-12T23:51:14.536Z,13.02
2023-03-12T23:53:43.438Z,17.73
2023-03-12T23:56:15.776Z,21.48
2023-03-12T23:58:43.373Z,20.52
